Glenn W Jones — WDC6543 — position and weather

sailwx.info

Track history (hours):
 
Tides and Currents Weather Stations Pressure Air Temp Water Temp Dewpoint Dewpoint Depression Visibility Wind Speed Wind Dir Waves Ship Positions

Glenn W Jones

Owner: American Commercial Lines LLC, Jeffersonville, IN. More information available from US FCC via Universal Licensing System and Coast Guard Vessel Documentation Center.

Last reported at 2018-Jan-12 14:53 UTC. Time now 2018-Jan-20 16:45 UTC.
Position N 38°43' W 090°10'.
Warning: this ship's position is 8 days out of date.

Length 39 m; draft 2.9 m.

Type: . MMSI: 367057710.

Date/timePositionNaut miles runAvg speedWind from/ knotsBaromVisibWave heightAir tempDewpointWater temp
2018-Jan-12 14:53N 38°43' W 090°10'0 0.0
2018-Jan-12 14:09N 38°43' W 090°10'0 0.0
2018-Jan-12 13:59N 38°43' W 090°10'0 0.0
2018-Jan-12 13:28N 38°43' W 090°10'0 0.0
2018-Jan-12 12:32N 38°43' W 090°10'0 0.0
2018-Jan-12 12:24N 38°43' W 090°10'0 0.0
2018-Jan-12 10:04N 38°43' W 090°10'0 0.0
2018-Jan-12 09:58N 38°43' W 090°10'0 0.0
2018-Jan-12 07:57N 38°43' W 090°10'0 0.0
2018-Jan-12 06:12N 38°43' W 090°10'0 0.2
2018-Jan-12 04:42N 38°43' W 090°10'1 4.7
2018-Jan-12 04:29N 38°42' W 090°11'0 0.9
2018-Jan-12 04:00N 38°42' W 090°11'2 4.6
2018-Jan-12 03:30N 38°39' W 090°11'1 0.4
2018-Jan-12 00:23N 38°38' W 090°11'2 5.8
2018-Jan-12 00:00N 38°36' W 090°11'0 0.0
2018-Jan-11 12:56N 38°36' W 090°12'0 0.4
2018-Jan-11 12:28N 38°36' W 090°11'0 0.0
2018-Jan-11 12:01N 38°36' W 090°11'0 0.0
2018-Jan-11 11:06N 38°36' W 090°11'0 0.0
2018-Jan-11 11:00N 38°36' W 090°11'0 0.1
2018-Jan-11 10:30N 38°36' W 090°11'0 0.1
2018-Jan-11 10:00N 38°36' W 090°11'0 0.1
2018-Jan-11 09:25N 38°36' W 090°11'0 0.0
2018-Jan-11 08:30N 38°36' W 090°11'0 0.0
2018-Jan-11 07:34N 38°36' W 090°11'0 0.0
2018-Jan-11 07:07N 38°36' W 090°11'0 0.0
2018-Jan-11 05:45N 38°36' W 090°11'0 0.0
2018-Jan-11 05:29N 38°36' W 090°11'0 0.0
2018-Jan-11 05:00N 38°36' W 090°11'0 0.0
2018-Jan-11 04:25N 38°36' W 090°11'0 0.0
2018-Jan-11 03:52N 38°36' W 090°11'0 0.0
2018-Jan-11 03:30N 38°36' W 090°11'0 0.0
2018-Jan-11 02:59N 38°36' W 090°11'0 0.0
2018-Jan-11 02:20N 38°36' W 090°11'0 0.5
2018-Jan-11 02:00N 38°36' W 090°11'1 0.1
2018-Jan-10 18:52N 38°37' W 090°11'0 0.0
2018-Jan-10 18:01N 38°37' W 090°11'0 0.1
2018-Jan-10 17:51N 38°37' W 090°11'0 0.1
2018-Jan-10 17:29N 38°37' W 090°11'0 0.3
2018-Jan-10 16:56N 38°37' W 090°11'1 1.3
2018-Jan-10 16:30N 38°36' W 090°11'0 0.7
2018-Jan-10 15:59N 38°36' W 090°11'0 0.0
2018-Jan-10 15:30N 38°36' W 090°11'0 0.1
2018-Jan-10 15:01N 38°36' W 090°11'0 0.1
2018-Jan-10 14:30N 38°36' W 090°11'22 0.8
2018-Jan-09 11:09N 38°15' W 090°22'2 3.9
2018-Jan-09 10:31N 38°13' W 090°21'0 3.8
2018-Jan-09 10:31N 38°13' W 090°21'15 3.4
2018-Jan-09 06:11N 38°03' W 090°07'  
Track history (hours):
 
Tides and Currents Weather Stations Pressure Air Temp Water Temp Dewpoint Dewpoint Depression Visibility Wind Speed Wind Dir Waves Ship Positions

Glenn W Jones

Owner: American Commercial Lines LLC, Jeffersonville, IN. More information available from US FCC via Universal Licensing System and Coast Guard Vessel Documentation Center.

Last reported at 2018-Jan-12 14:53 UTC. Time now 2018-Jan-20 16:45 UTC.
Position N 38°43' W 090°10'.
Warning: this ship's position is 8 days out of date.

Length 39 m; draft 2.9 m.

Type: . MMSI: 367057710.

Date/timePositionNaut miles runAvg speedWind from/ knotsBaromVisibWave heightAir tempDewpointWater temp
2018-Jan-12 14:53N 38°43' W 090°10'0 0.0
2018-Jan-12 14:09N 38°43' W 090°10'0 0.0
2018-Jan-12 13:59N 38°43' W 090°10'0 0.0
2018-Jan-12 13:28N 38°43' W 090°10'0 0.0
2018-Jan-12 12:32N 38°43' W 090°10'0 0.0
2018-Jan-12 12:24N 38°43' W 090°10'0 0.0
2018-Jan-12 10:04N 38°43' W 090°10'0 0.0
2018-Jan-12 09:58N 38°43' W 090°10'0 0.0
2018-Jan-12 07:57N 38°43' W 090°10'0 0.0
2018-Jan-12 06:12N 38°43' W 090°10'0 0.2
2018-Jan-12 04:42N 38°43' W 090°10'1 4.7
2018-Jan-12 04:29N 38°42' W 090°11'0 0.9
2018-Jan-12 04:00N 38°42' W 090°11'2 4.6
2018-Jan-12 03:30N 38°39' W 090°11'1 0.4
2018-Jan-12 00:23N 38°38' W 090°11'2 5.8
2018-Jan-12 00:00N 38°36' W 090°11'0 0.0
2018-Jan-11 12:56N 38°36' W 090°12'0 0.4
2018-Jan-11 12:28N 38°36' W 090°11'0 0.0
2018-Jan-11 12:01N 38°36' W 090°11'0 0.0
2018-Jan-11 11:06N 38°36' W 090°11'0 0.0
2018-Jan-11 11:00N 38°36' W 090°11'0 0.1
2018-Jan-11 10:30N 38°36' W 090°11'0 0.1
2018-Jan-11 10:00N 38°36' W 090°11'0 0.1
2018-Jan-11 09:25N 38°36' W 090°11'0 0.0
2018-Jan-11 08:30N 38°36' W 090°11'0 0.0
2018-Jan-11 07:34N 38°36' W 090°11'0 0.0
2018-Jan-11 07:07N 38°36' W 090°11'0 0.0
2018-Jan-11 05:45N 38°36' W 090°11'0 0.0
2018-Jan-11 05:29N 38°36' W 090°11'0 0.0
2018-Jan-11 05:00N 38°36' W 090°11'0 0.0
2018-Jan-11 04:25N 38°36' W 090°11'0 0.0
2018-Jan-11 03:52N 38°36' W 090°11'0 0.0
2018-Jan-11 03:30N 38°36' W 090°11'0 0.0
2018-Jan-11 02:59N 38°36' W 090°11'0 0.0
2018-Jan-11 02:20N 38°36' W 090°11'0 0.5
2018-Jan-11 02:00N 38°36' W 090°11'1 0.1
2018-Jan-10 18:52N 38°37' W 090°11'0 0.0
2018-Jan-10 18:01N 38°37' W 090°11'0 0.1
2018-Jan-10 17:51N 38°37' W 090°11'0 0.1
2018-Jan-10 17:29N 38°37' W 090°11'0 0.3
2018-Jan-10 16:56N 38°37' W 090°11'1 1.3
2018-Jan-10 16:30N 38°36' W 090°11'0 0.7
2018-Jan-10 15:59N 38°36' W 090°11'0 0.0
2018-Jan-10 15:30N 38°36' W 090°11'0 0.1
2018-Jan-10 15:01N 38°36' W 090°11'0 0.1
2018-Jan-10 14:30N 38°36' W 090°11'22 0.8
2018-Jan-09 11:09N 38°15' W 090°22'2 3.9
2018-Jan-09 10:31N 38°13' W 090°21'0 3.8
2018-Jan-09 10:31N 38°13' W 090°21'15 3.4
2018-Jan-09 06:11N 38°03' W 090°07'  

Dump ship's entire track history